Time;durP1;ratioP1;P1;durP2;ratioP2;P2;SDS_P1;SDS_P2;PMS_P1;PMS_P2;Temp;Humidity;BMP_temperature;BMP_pressure;BME280_temperature;BME280_humidity;BME280_pressure;Samples;Min_cycle;Max_cycle;Signal;HPM_P1;HPM_P2
2021/07/01 00:00:34;;;;;;;;;;;;;;;18.45;72.48;99304.75;5053028;28;822;-59
2021/07/01 00:03:04;;;;;;;;;;;;;;;18.43;72.61;99305.22;5052951;28;859;-60
2021/07/01 00:05:30;;;;;;;;;;;;;;;18.43;72.65;99301.66;5052849;28;1087;-59
2021/07/01 00:07:56;;;;;;;;;;;;;;;18.42;72.65;99292.50;5052830;28;850;-59
2021/07/01 00:10:25;;;;;;;;;;;;;;;18.39;72.91;99292.63;5052849;28;858;-59
2021/07/01 00:12:52;;;;;;;;;;;;;;;18.32;72.99;99286.13;5052529;28;1199;-60
2021/07/01 00:15:20;;;;;;;;;;;;;;;18.30;73.08;99282.25;5052701;28;1977;-60
2021/07/01 00:17:47;;;;;;;;;;;;;;;18.31;73.21;99281.78;5052676;28;933;-59
2021/07/01 00:20:14;;;;;;;;;;;;;;;18.29;73.32;99280.69;5052549;28;866;-59
2021/07/01 00:22:41;;;;;;;;;;;;;;;18.26;73.40;99284.41;5052623;28;830;-59
2021/07/01 00:25:09;;;;;;;;;;;;;;;18.24;73.42;99276.50;5052657;28;831;-60
2021/07/01 00:27:36;;;;;;;;;;;;;;;18.27;73.27;99272.78;5052449;28;886;-60
2021/07/01 00:30:03;;;;;;;;;;;;;;;18.30;73.09;99283.00;5051186;28;847;-59
2021/07/01 00:32:30;;;;;;;;;;;;;;;18.31;72.93;99273.38;5052325;28;826;-59
2021/07/01 00:34:56;;;;;;;;;;;;;;;18.27;73.17;99272.00;5052304;28;1952;-59
2021/07/01 00:37:23;;;;;;;;;;;;;;;18.22;73.24;99270.63;5052245;28;803;-60
2021/07/01 00:39:50;;;;;;;;;;;;;;;18.17;73.37;99260.03;5052271;28;889;-59
2021/07/01 00:42:16;;;;;;;;;;;;;;;18.13;73.57;99262.97;5052199;28;819;-60
2021/07/01 00:44:43;;;;;;;;;;;;;;;18.10;73.35;99254.78;5052173;28;858;-59
2021/07/01 00:47:09;;;;;;;;;;;;;;;18.07;73.42;99250.09;5052198;28;810;-60
2021/07/01 00:49:36;;;;;;;;;;;;;;;18.04;73.61;99249.03;5052101;28;902;-60
2021/07/01 00:52:02;;;;;;;;;;;;;;;18.06;73.52;99254.16;5051974;28;831;-60
2021/07/01 00:54:29;;;;;;;;;;;;;;;18.08;73.16;99248.88;5051863;28;1890;-59
2021/07/01 00:56:54;;;;;;;;;;;;;;;18.08;73.32;99252.44;5052065;28;869;-59
2021/07/01 00:59:21;;;;;;;;;;;;;;;18.08;73.20;99255.22;5051887;28;909;-60
2021/07/01 01:01:48;;;;;;;;;;;;;;;18.02;73.59;99248.72;5051914;28;811;-60
2021/07/01 01:04:15;;;;;;;;;;;;;;;17.95;73.51;99249.03;5050564;28;2743;-59
2021/07/01 01:06:42;;;;;;;;;;;;;;;17.91;73.87;99238.00;5052142;28;893;-60
2021/07/01 01:09:09;;;;;;;;;;;;;;;17.87;73.77;99239.41;5050432;28;933;-59
2021/07/01 01:11:36;;;;;;;;;;;;;;;17.80;74.02;99231.31;5051836;28;826;-60
2021/07/01 01:14:02;;;;;;;;;;;;;;;17.69;74.36;99235.34;5051381;28;1977;-60
2021/07/01 01:16:29;;;;;;;;;;;;;;;17.64;74.80;99233.16;5051877;28;815;-60
2021/07/01 01:18:55;;;;;;;;;;;;;;;17.63;74.92;99228.03;5051855;28;850;-60
2021/07/01 01:21:28;;;;;;;;;;;;;;;17.63;74.81;99225.25;5051615;28;870;-60
2021/07/01 01:23:59;;;;;;;;;;;;;;;17.64;75.05;99226.78;5051420;28;906;-60
2021/07/01 01:26:26;;;;;;;;;;;;;;;17.66;74.88;99222.28;5050245;28;1227;-60
2021/07/01 01:28:53;;;;;;;;;;;;;;;17.70;74.68;99228.50;5051508;28;834;-60
2021/07/01 01:31:20;;;;;;;;;;;;;;;17.73;74.76;99226.78;5051455;28;823;-60
2021/07/01 01:33:49;;;;;;;;;;;;;;;17.80;74.59;99222.94;5051693;28;1977;-60
2021/07/01 01:36:15;;;;;;;;;;;;;;;17.87;74.14;99229.00;5052215;28;772;-60
2021/07/01 01:38:42;;;;;;;;;;;;;;;17.94;74.11;99223.09;5052110;28;778;-60
2021/07/01 01:41:08;;;;;;;;;;;;;;;17.94;73.85;99220.31;5051434;28;810;-60
2021/07/01 01:43:35;;;;;;;;;;;;;;;17.90;73.99;99208.50;5051372;28;840;-60
2021/07/01 01:46:01;;;;;;;;;;;;;;;17.85;74.35;99211.13;5051330;28;798;-60
2021/07/01 01:48:28;;;;;;;;;;;;;;;17.82;74.50;99212.06;5051382;28;893;-60
2021/07/01 01:50:55;;;;;;;;;;;;;;;17.84;74.45;99210.38;5051349;28;890;-60
2021/07/01 01:53:21;;;;;;;;;;;;;;;17.84;74.25;99206.81;5051107;28;1949;-60
2021/07/01 01:55:48;;;;;;;;;;;;;;;17.80;74.21;99200.56;5051471;28;854;-60
2021/07/01 01:58:14;;;;;;;;;;;;;;;17.72;74.48;99200.84;5051175;28;863;-60
2021/07/01 02:00:41;;;;;;;;;;;;;;;17.69;74.38;99196.22;5051276;28;874;-60
2021/07/01 02:03:08;;;;;;;;;;;;;;;17.70;74.54;99196.97;5051132;28;806;-60
2021/07/01 02:05:35;;;;;;;;;;;;;;;17.70;74.38;99200.53;5054118;28;815;-60
2021/07/01 02:08:06;;;;;;;;;;;;;;;17.75;73.99;99202.75;5055290;28;893;-60
2021/07/01 02:10:34;;;;;;;;;;;;;;;17.85;73.83;99205.53;5055471;28;838;-60
2021/07/01 02:13:03;;;;;;;;;;;;;;;17.93;73.36;99206.78;5055105;28;1137;-60
2021/07/01 02:15:29;;;;;;;;;;;;;;;17.96;73.01;99205.84;5055069;28;1914;-60
2021/07/01 02:17:56;;;;;;;;;;;;;;;17.95;72.75;99213.47;5055136;28;853;-60
2021/07/01 02:20:25;;;;;;;;;;;;;;;17.94;73.01;99222.31;5055172;28;815;-60
2021/07/01 02:22:52;;;;;;;;;;;;;;;17.95;72.71;99212.69;5054835;28;885;-60
2021/07/01 02:25:19;;;;;;;;;;;;;;;17.89;72.94;99223.72;5054792;28;874;-60
2021/07/01 02:27:46;;;;;;;;;;;;;;;17.78;73.10;99223.38;5054839;28;873;-60
2021/07/01 02:30:14;;;;;;;;;;;;;;;17.71;73.22;99226.50;5054817;28;922;-60
2021/07/01 02:32:41;;;;;;;;;;;;;;;17.64;73.39;99219.19;5054818;28;1029;-60
2021/07/01 02:35:09;;;;;;;;;;;;;;;17.56;73.86;99220.75;5054623;28;1890;-60
2021/07/01 02:37:36;;;;;;;;;;;;;;;17.57;73.63;99213.91;5054536;28;1121;-60
2021/07/01 02:40:04;;;;;;;;;;;;;;;17.61;73.57;99216.56;5054629;28;807;-60
2021/07/01 02:42:31;;;;;;;;;;;;;;;17.66;73.45;99225.06;5054486;28;925;-60
2021/07/01 02:44:58;;;;;;;;;;;;;;;17.70;73.21;99225.69;5054454;28;835;-60
2021/07/01 02:47:24;;;;;;;;;;;;;;;17.76;72.91;99229.44;5054450;28;902;-60
2021/07/01 02:49:51;;;;;;;;;;;;;;;17.76;73.01;99226.63;5054451;28;838;-60
2021/07/01 02:52:18;;;;;;;;;;;;;;;17.74;73.20;99226.31;5054167;28;872;-60
2021/07/01 02:54:44;;;;;;;;;;;;;;;17.79;72.86;99219.34;5054281;28;1893;-60
2021/07/01 02:57:11;;;;;;;;;;;;;;;17.81;72.74;99216.06;5054315;28;811;-60
2021/07/01 02:59:37;;;;;;;;;;;;;;;17.82;72.86;99221.25;5054148;28;862;-60
2021/07/01 03:02:04;;;;;;;;;;;;;;;17.87;73.13;99222.63;5054229;28;843;-60
2021/07/01 03:04:31;;;;;;;;;;;;;;;17.94;73.02;99236.28;5054075;28;971;-60
2021/07/01 03:06:57;;;;;;;;;;;;;;;18.06;72.92;99234.56;5054068;28;850;-60
2021/07/01 03:09:24;;;;;;;;;;;;;;;18.24;72.54;99231.75;5053973;28;818;-60
2021/07/01 03:11:50;;;;;;;;;;;;;;;18.46;72.09;99234.34;5054053;28;901;-60
2021/07/01 03:14:17;;;;;;;;;;;;;;;18.67;71.60;99232.56;5053867;28;1914;-60
2021/07/01 03:16:44;;;;;;;;;;;;;;;18.83;71.39;99230.69;5052910;28;893;-60
2021/07/01 03:19:11;;;;;;;;;;;;;;;18.99;71.16;99233.09;5053931;28;862;-60
2021/07/01 03:21:37;;;;;;;;;;;;;;;19.20;70.46;99231.25;5053870;28;926;-60
2021/07/01 03:24:04;;;;;;;;;;;;;;;19.36;70.15;99224.47;5054033;28;802;-60
2021/07/01 03:26:30;;;;;;;;;;;;;;;19.46;70.03;99234.38;5054018;28;861;-60
2021/07/01 03:28:57;;;;;;;;;;;;;;;19.52;70.03;99229.66;5053801;28;839;-60
2021/07/01 03:31:23;;;;;;;;;;;;;;;19.67;69.93;99232.53;5054147;28;771;-60
2021/07/01 03:33:50;;;;;;;;;;;;;;;19.86;69.45;99226.78;5053445;28;1956;-60
2021/07/01 03:36:16;;;;;;;;;;;;;;;19.96;69.53;99226.22;5053581;28;811;-60
2021/07/01 03:38:43;;;;;;;;;;;;;;;20.12;69.03;99224.19;5053500;28;802;-60
2021/07/01 03:41:10;;;;;;;;;;;;;;;20.16;68.98;99219.97;5053469;28;802;-60
2021/07/01 03:43:43;;;;;;;;;;;;;;;20.22;69.12;99236.09;5053380;28;842;-60
2021/07/01 03:46:10;;;;;;;;;;;;;;;20.29;69.15;99227.31;5053418;28;909;-60
2021/07/01 03:48:37;;;;;;;;;;;;;;;20.37;69.51;99222.84;5053337;28;826;-60
2021/07/01 03:51:05;;;;;;;;;;;;;;;20.38;69.85;99224.41;5053164;28;986;-60
2021/07/01 03:53:30;;;;;;;;;;;;;;;20.46;69.83;99222.78;5051846;28;1941;-61
2021/07/01 03:55:57;;;;;;;;;;;;;;;20.54;70.23;99234.38;5053204;28;1027;-61
2021/07/01 03:58:24;;;;;;;;;;;;;;;20.69;70.09;99234.38;5053191;28;866;-60
2021/07/01 04:00:50;;;;;;;;;;;;;;;20.86;69.64;99227.00;5053076;28;870;-61
2021/07/01 04:03:17;;;;;;;;;;;;;;;21.00;69.95;99229.00;5053141;28;914;-61
2021/07/01 04:05:43;;;;;;;;;;;;;;;20.87;69.44;99211.69;5053184;28;830;-61
2021/07/01 04:08:09;;;;;;;;;;;;;;;21.16;69.07;99238.16;5053200;28;870;-61
2021/07/01 04:10:36;;;;;;;;;;;;;;;21.35;69.02;99247.88;5053480;28;775;-61
2021/07/01 04:13:03;;;;;;;;;;;;;;;21.54;68.49;99244.81;5053010;28;1146;-62
2021/07/01 04:15:30;;;;;;;;;;;;;;;21.66;68.27;99245.72;5053254;28;1915;-61
2021/07/01 04:17:57;;;;;;;;;;;;;;;21.74;68.36;99244.03;5053177;28;775;-61
2021/07/01 04:20:23;;;;;;;;;;;;;;;22.03;67.64;99259.97;5052541;28;878;-61
2021/07/01 04:22:50;;;;;;;;;;;;;;;22.55;66.54;99245.16;5052636;28;881;-61
2021/07/01 04:25:17;;;;;;;;;;;;;;;23.00;65.03;99249.13;5052566;28;819;-60
2021/07/01 04:27:44;;;;;;;;;;;;;;;23.43;64.34;99251.94;5052288;28;839;-60
2021/07/01 04:30:11;;;;;;;;;;;;;;;23.83;63.71;99252.91;5051292;28;882;-60
2021/07/01 04:32:38;;;;;;;;;;;;;;;24.15;62.88;99254.78;5052365;28;952;-60
2021/07/01 04:35:03;;;;;;;;;;;;;;;24.45;61.59;99250.22;5052294;28;1886;-60
2021/07/01 04:37:30;;;;;;;;;;;;;;;24.80;60.37;99251.78;5052533;28;819;-61
2021/07/01 04:39:57;;;;;;;;;;;;;;;25.30;58.90;99258.69;5052313;28;838;-61
2021/07/01 04:42:23;;;;;;;;;;;;;;;25.38;58.38;99256.84;5052261;28;858;-60
2021/07/01 04:44:50;;;;;;;;;;;;;;;25.33;58.82;99254.81;5052183;28;839;-61
2021/07/01 04:47:17;;;;;;;;;;;;;;;25.22;59.39;99254.84;5052151;28;834;-61
2021/07/01 04:49:43;;;;;;;;;;;;;;;25.02;59.83;99245.34;5051963;28;934;-61
2021/07/01 04:52:10;;;;;;;;;;;;;;;24.81;60.00;99250.50;5052079;28;859;-60
2021/07/01 04:54:36;;;;;;;;;;;;;;;24.76;60.26;99256.94;5051958;28;1953;-61
2021/07/01 04:57:03;;;;;;;;;;;;;;;24.88;60.44;99256.91;5050846;28;834;-61
2021/07/01 04:59:29;;;;;;;;;;;;;;;25.14;60.19;99262.31;5051928;28;865;-61
2021/07/01 05:01:56;;;;;;;;;;;;;;;25.46;59.49;99268.41;5050590;28;1477;-61
2021/07/01 05:04:22;;;;;;;;;;;;;;;25.75;58.91;99271.91;5051884;28;846;-61
2021/07/01 05:14:29;;;;;;;;;;;;;;;28.32;53.32;99268.59;5063079;28;1886;-61
2021/07/01 05:16:55;;;;;;;;;;;;;;;29.27;51.23;99266.25;5071991;28;877;-61
2021/07/01 05:19:22;;;;;;;;;;;;;;;29.96;49.24;99267.25;5072123;28;809;-61
2021/07/01 05:21:48;;;;;;;;;;;;;;;30.02;47.87;99265.03;5071942;28;885;-62
2021/07/01 05:24:15;;;;;;;;;;;;;;;30.66;47.18;99272.41;5072070;28;889;-62
2021/07/01 05:26:41;;;;;;;;;;;;;;;31.38;45.32;99267.47;5072228;28;742;-62
2021/07/01 05:29:08;;;;;;;;;;;;;;;31.79;44.08;99262.94;5071570;28;810;-62
2021/07/01 05:31:35;;;;;;;;;;;;;;;32.25;43.54;99263.16;5071495;28;830;-63
2021/07/01 05:34:02;;;;;;;;;;;;;;;32.63;41.68;99263.25;5071419;28;1959;-63
2021/07/01 05:36:28;;;;;;;;;;;;;;;32.96;41.96;99267.06;5071733;28;895;-63
2021/07/01 05:38:54;;;;;;;;;;;;;;;33.25;41.42;99269.75;5070846;28;822;-64
2021/07/01 05:41:20;;;;;;;;;;;;;;;33.31;40.42;99264.59;5071488;28;841;-63
2021/07/01 05:43:47;;;;;;;;;;;;;;;33.41;39.54;99267.59;5071323;28;853;-63
2021/07/01 05:46:13;;;;;;;;;;;;;;;33.09;40.24;99266.13;5071421;28;893;-63
2021/07/01 05:48:41;;;;;;;;;;;;;;;32.85;40.85;99267.44;5071652;28;905;-63
2021/07/01 05:51:10;;;;;;;;;;;;;;;33.26;39.89;99256.19;5071337;28;889;-62
2021/07/01 05:54:26;;;;;;;;;;;;;;;33.88;39.04;99260.41;5071288;28;1945;-63
2021/07/01 05:56:26;;;;;;;;;;;;;;;34.53;38.22;99253.22;5068088;28;1011;-63
2021/07/01 05:58:53;;;;;;;;;;;;;;;34.76;36.39;99253.84;5071368;28;814;-63
2021/07/01 06:01:20;;;;;;;;;;;;;;;34.65;35.56;99262.13;5071272;28;1196;-63
2021/07/01 06:03:46;;;;;;;;;;;;;;;34.76;33.86;99255.97;5071163;28;815;-62
2021/07/01 06:06:13;;;;;;;;;;;;;;;34.67;34.16;99250.84;5071265;28;849;-63
2021/07/01 06:08:41;;;;;;;;;;;;;;;34.79;34.87;99254.03;5071186;28;882;-63
2021/07/01 06:11:07;;;;;;;;;;;;;;;35.11;34.80;99256.78;5071128;28;876;-64
2021/07/01 06:13:35;;;;;;;;;;;;;;;35.23;33.04;99262.06;5070883;28;1914;-64
2021/07/01 06:16:02;;;;;;;;;;;;;;;35.32;31.87;99258.53;5069963;28;861;-65
2021/07/01 06:18:29;;;;;;;;;;;;;;;35.50;31.33;99257.16;5071110;28;803;-64
2021/07/01 06:20:54;;;;;;;;;;;;;;;35.44;30.95;99261.66;5053096;28;1541;-63
2021/07/01 06:23:21;;;;;;;;;;;;;;;35.17;30.47;99263.06;5071078;28;877;-63
2021/07/01 06:25:48;;;;;;;;;;;;;;;35.35;30.06;99260.22;5070983;28;834;-63
2021/07/01 06:28:15;;;;;;;;;;;;;;;35.70;29.76;99263.09;5071019;28;786;-63
2021/07/01 06:30:45;;;;;;;;;;;;;;;36.03;30.13;99263.66;5071042;28;917;-63
2021/07/01 06:33:12;;;;;;;;;;;;;;;36.48;28.99;99263.66;5070934;28;814;-64
2021/07/01 06:35:39;;;;;;;;;;;;;;;36.57;28.71;99260.81;5071496;28;1947;-64
2021/07/01 06:38:09;;;;;;;;;;;;;;;36.59;28.84;99263.88;5071033;28;1024;-63
2021/07/01 06:40:37;;;;;;;;;;;;;;;36.99;28.44;99264.78;5070864;28;818;-63
2021/07/01 06:43:04;;;;;;;;;;;;;;;37.32;27.62;99262.28;5070808;28;819;-64
2021/07/01 06:45:32;;;;;;;;;;;;;;;37.45;26.66;99260.31;5070862;28;965;-64
2021/07/01 06:47:59;;;;;;;;;;;;;;;37.45;25.96;99258.22;5071099;28;874;-64
2021/07/01 06:50:28;;;;;;;;;;;;;;;37.80;26.15;99258.69;5071648;28;810;-65
2021/07/01 06:52:55;;;;;;;;;;;;;;;37.61;25.80;99261.56;5074399;28;854;-65
2021/07/01 06:55:22;;;;;;;;;;;;;;;37.22;26.71;99257.88;5074231;28;1897;-65
2021/07/01 06:57:49;;;;;;;;;;;;;;;37.18;26.78;99256.19;5074588;28;865;-64
2021/07/01 07:00:19;;;;;;;;;;;;;;;37.55;25.97;99261.84;5074297;28;853;-65
2021/07/01 07:02:46;;;;;;;;;;;;;;;37.74;26.20;99263.22;5074167;28;893;-65
2021/07/01 07:05:13;;;;;;;;;;;;;;;37.85;25.01;99256.84;5074310;28;814;-64
2021/07/01 07:07:40;;;;;;;;;;;;;;;37.80;25.61;99267.31;5074141;28;794;-64
2021/07/01 07:10:08;;;;;;;;;;;;;;;38.07;26.00;99259.88;5074111;28;810;-64
2021/07/01 07:12:41;;;;;;;;;;;;;;;38.22;25.79;99256.66;5074014;28;904;-65
2021/07/01 07:15:09;;;;;;;;;;;;;;;38.18;24.93;99245.59;5073801;28;1909;-64
2021/07/01 07:17:37;;;;;;;;;;;;;;;38.20;24.76;99242.09;5073921;28;896;-64
2021/07/01 07:20:05;;;;;;;;;;;;;;;38.18;25.01;99247.72;5073891;28;869;-64
2021/07/01 07:22:34;;;;;;;;;;;;;;;38.52;25.48;99240.78;5073873;28;864;-63
2021/07/01 07:25:02;;;;;;;;;;;;;;;38.75;24.91;99234.47;5074004;28;868;-63
2021/07/01 07:27:29;;;;;;;;;;;;;;;39.17;24.38;99224.34;5074004;28;818;-64
2021/07/01 07:29:56;;;;;;;;;;;;;;;39.25;23.46;99221.25;5073734;28;885;-64
2021/07/01 07:32:24;;;;;;;;;;;;;;;39.20;23.56;99220.22;5073799;28;812;-64
2021/07/01 07:34:51;;;;;;;;;;;;;;;39.20;24.91;99219.47;5073625;28;1930;-64
2021/07/01 07:37:17;;;;;;;;;;;;;;;39.42;23.16;99211.56;5073611;28;889;-64
2021/07/01 07:39:47;;;;;;;;;;;;;;;40.08;23.12;99213.69;5073606;28;818;-64
2021/07/01 07:42:14;;;;;;;;;;;;;;;40.34;24.17;99214.63;5073531;28;834;-64
2021/07/01 07:44:40;;;;;;;;;;;;;;;40.24;24.01;99216.09;5073330;28;849;-64
2021/07/01 07:47:10;;;;;;;;;;;;;;;39.56;24.01;99208.84;5073438;28;818;-63
2021/07/01 07:49:37;;;;;;;;;;;;;;;39.46;24.22;99205.31;5073452;28;902;-64
2021/07/01 07:52:07;;;;;;;;;;;;;;;39.65;24.73;99213.03;5073256;28;1024;-63
2021/07/01 07:54:38;;;;;;;;;;;;;;;39.72;24.60;99212.81;5073157;28;1886;-64
2021/07/01 07:57:05;;;;;;;;;;;;;;;39.89;24.45;99214.66;5073184;28;854;-64
2021/07/01 07:59:32;;;;;;;;;;;;;;;39.49;25.52;99201.91;5073146;28;859;-64
2021/07/01 08:02:00;;;;;;;;;;;;;;;39.28;24.99;99201.91;5072413;28;881;-65
2021/07/01 08:04:27;;;;;;;;;;;;;;;39.33;24.92;99195.03;5073195;28;841;-63
2021/07/01 08:06:54;;;;;;;;;;;;;;;39.40;25.51;99191.19;5072898;28;1021;-62
2021/07/01 08:09:24;;;;;;;;;;;;;;;39.58;24.54;99201.06;5073122;28;901;-61
2021/07/01 08:11:51;;;;;;;;;;;;;;;39.81;25.45;99205.41;5072888;28;850;-61
2021/07/01 08:14:20;;;;;;;;;;;;;;;39.97;24.87;99194.91;5072365;28;1913;-61
2021/07/01 08:16:48;;;;;;;;;;;;;;;40.41;26.37;99192.59;5073379;28;981;-61
2021/07/01 08:19:15;;;;;;;;;;;;;;;40.78;24.47;99189.84;5071433;28;1183;-62
2021/07/01 08:21:42;;;;;;;;;;;;;;;40.65;23.94;99190.47;5072926;28;884;-61
2021/07/01 08:24:09;;;;;;;;;;;;;;;40.62;24.03;99180.88;5073351;28;810;-61
2021/07/01 08:26:36;;;;;;;;;;;;;;;40.48;24.69;99182.16;5072644;28;1325;-61
2021/07/01 08:29:03;;;;;;;;;;;;;;;40.54;23.81;99177.50;5073389;28;798;-61
2021/07/01 08:31:31;;;;;;;;;;;;;;;40.85;23.81;99179.38;5072961;28;861;-61
2021/07/01 08:33:58;;;;;;;;;;;;;;;41.24;23.75;99166.44;5072622;28;1918;-61
2021/07/01 08:36:25;;;;;;;;;;;;;;;41.05;24.17;99159.53;5072706;28;830;-61
2021/07/01 08:38:54;;;;;;;;;;;;;;;40.85;25.23;99164.13;5072393;28;913;-61
2021/07/01 08:41:22;;;;;;;;;;;;;;;40.52;24.71;99177.38;5072406;28;868;-61
2021/07/01 08:43:59;;;;;;;;;;;;;;;40.29;25.39;99166.56;5072286;28;822;-61
2021/07/01 08:46:27;;;;;;;;;;;;;;;40.62;25.00;99162.75;5072155;28;852;-61
2021/07/01 08:49:03;;;;;;;;;;;;;;;40.68;25.85;99165.28;5072078;28;881;-62
2021/07/01 08:51:36;;;;;;;;;;;;;;;40.18;25.06;99158.56;5072285;28;845;-61
2021/07/01 08:54:09;;;;;;;;;;;;;;;39.64;25.56;99150.78;5054080;28;1890;-61
2021/07/01 08:56:37;;;;;;;;;;;;;;;39.60;25.90;99139.72;5072101;28;811;-62
2021/07/01 08:59:07;;;;;;;;;;;;;;;39.44;24.66;99150.25;5071974;28;826;-62
2021/07/01 09:01:37;;;;;;;;;;;;;;;39.44;25.67;99147.34;5071923;28;806;-62
2021/07/01 09:04:04;;;;;;;;;;;;;;;39.68;26.20;99148.16;5072612;28;889;-62
2021/07/01 09:06:36;;;;;;;;;;;;;;;39.99;26.09;99136.44;5072421;28;1318;-61
2021/07/01 09:09:09;;;;;;;;;;;;;;;39.89;26.78;99141.59;5071743;28;948;-62
2021/07/01 09:11:37;;;;;;;;;;;;;;;40.03;28.17;99139.56;5071761;28;908;-62
2021/07/01 09:14:06;;;;;;;;;;;;;;;40.00;26.86;99138.69;5049359;28;1902;-61
2021/07/01 09:16:35;;;;;;;;;;;;;;;40.03;26.20;99133.03;5051751;28;836;-62
2021/07/01 09:19:01;;;;;;;;;;;;;;;40.00;27.11;99135.78;5051741;28;956;-61
2021/07/01 09:21:28;;;;;;;;;;;;;;;39.90;27.71;99137.28;5067093;28;1387;-61
2021/07/01 09:23:57;;;;;;;;;;;;;;;39.49;26.61;99138.31;5051734;28;872;-62
2021/07/01 09:26:24;;;;;;;;;;;;;;;39.39;27.14;99144.19;5051546;28;834;-61
2021/07/01 09:28:51;;;;;;;;;;;;;;;39.15;26.34;99136.75;5051699;28;1181;-62
2021/07/01 09:31:19;;;;;;;;;;;;;;;38.98;25.89;99141.44;5051588;28;825;-61
2021/07/01 09:33:48;;;;;;;;;;;;;;;38.95;28.08;99130.41;5066886;28;1917;-63
2021/07/01 09:36:15;;;;;;;;;;;;;;;38.26;27.23;99132.91;5052121;28;762;-61
2021/07/01 09:38:43;;;;;;;;;;;;;;;38.10;28.66;99137.50;5051605;28;798;-61
2021/07/01 09:41:11;;;;;;;;;;;;;;;38.04;28.48;99131.31;5051747;28;869;-61
2021/07/01 09:43:39;;;;;;;;;;;;;;;37.80;27.76;99131.06;5050448;28;817;-61
2021/07/01 09:46:11;;;;;;;;;;;;;;;37.44;29.10;99132.75;5051624;28;877;-62
2021/07/01 09:48:42;;;;;;;;;;;;;;;37.02;29.78;99136.09;5051410;28;818;-61
2021/07/01 09:51:08;;;;;;;;;;;;;;;37.08;30.53;99125.78;5066880;28;1256;-61
2021/07/01 09:53:37;;;;;;;;;;;;;;;37.34;29.21;99135.69;5051387;28;1881;-61
2021/07/01 09:56:07;;;;;;;;;;;;;;;37.10;30.49;99128.84;5051360;28;845;-60
2021/07/01 09:58:38;;;;;;;;;;;;;;;36.72;30.33;99129.53;5051332;28;878;-61
2021/07/01 10:01:03;;;;;;;;;;;;;;;36.37;32.13;99118.97;5051255;28;1014;-61
2021/07/01 10:03:30;;;;;;;;;;;;;;;36.30;29.86;99128.50;5051590;28;823;-62
2021/07/01 10:05:56;;;;;;;;;;;;;;;36.15;32.14;99120.13;5051270;28;873;-63
2021/07/01 10:08:39;;;;;;;;;;;;;;;35.81;32.98;99129.63;5049973;28;814;-61
2021/07/01 10:11:06;;;;;;;;;;;;;;;35.73;33.13;99123.97;5051102;28;862;-63
2021/07/01 10:13:33;;;;;;;;;;;;;;;35.39;33.24;99128.41;5057455;28;1973;-61
2021/07/01 10:16:00;;;;;;;;;;;;;;;35.36;33.85;99124.63;5071240;28;955;-61
2021/07/01 10:18:27;;;;;;;;;;;;;;;35.24;34.12;99117.13;5071172;28;830;-61
2021/07/01 10:20:56;;;;;;;;;;;;;;;34.88;34.69;99118.44;5071034;28;849;-61
2021/07/01 10:23:23;;;;;;;;;;;;;;;34.59;36.83;99116.03;5071072;28;814;-61
2021/07/01 10:26:13;;;;;;;;;;;;;;;34.51;36.45;99118.22;5072420;28;943;-63
2021/07/01 10:28:40;;;;;;;;;;;;;;;34.56;37.56;99106.47;5066931;28;1158;-62
2021/07/01 10:31:13;;;;;;;;;;;;;;;34.44;36.15;99105.47;5074944;28;889;-62
2021/07/01 10:33:41;;;;;;;;;;;;;;;34.18;36.71;99109.69;5074991;28;1885;-61
2021/07/01 10:36:16;;;;;;;;;;;;;;;33.93;36.97;99106.78;5074963;28;850;-62
2021/07/01 10:38:50;;;;;;;;;;;;;;;33.89;36.30;99100.72;5074460;28;842;-62
2021/07/01 10:41:26;;;;;;;;;;;;;;;33.85;36.56;99101.09;5074535;28;873;-61
2021/07/01 10:43:53;;;;;;;;;;;;;;;34.11;37.34;99101.88;5074412;28;870;-61
2021/07/01 10:46:20;;;;;;;;;;;;;;;34.29;37.19;99102.72;5074578;28;791;-62
2021/07/01 10:48:56;;;;;;;;;;;;;;;34.45;37.23;99097.63;5074463;28;862;-61
2021/07/01 10:51:25;;;;;;;;;;;;;;;34.32;36.87;99096.56;5074461;28;860;-62
2021/07/01 10:53:52;;;;;;;;;;;;;;;34.21;37.16;99094.19;5074258;28;1878;-61
2021/07/01 10:56:25;;;;;;;;;;;;;;;34.19;36.27;99088.28;5074323;28;818;-63
2021/07/01 10:58:58;;;;;;;;;;;;;;;34.03;38.67;99090.47;5074748;28;813;-61
2021/07/01 11:01:25;;;;;;;;;;;;;;;34.08;39.51;99091.59;5074275;28;830;-61
2021/07/01 11:04:05;;;;;;;;;;;;;;;34.03;37.87;99086.84;5056252;28;895;-66
2021/07/01 11:06:32;;;;;;;;;;;;;;;33.93;39.46;99090.34;5074072;28;798;-61
2021/07/01 11:08:59;;;;;;;;;;;;;;;34.01;38.36;99090.28;5074180;28;893;-61
2021/07/01 11:11:32;;;;;;;;;;;;;;;34.23;38.62;99091.50;5074030;28;842;-61
2021/07/01 11:13:59;;;;;;;;;;;;;;;34.26;37.76;99083.81;5073856;28;1902;-63
2021/07/01 11:16:38;;;;;;;;;;;;;;;34.07;37.76;99095.78;5055994;28;1204;-61
2021/07/01 11:19:06;;;;;;;;;;;;;;;34.14;37.93;99083.53;5073983;28;790;-62
2021/07/01 11:21:32;;;;;;;;;;;;;;;34.24;37.34;99090.13;5073889;28;841;-62
2021/07/01 11:24:15;;;;;;;;;;;;;;;34.23;37.41;99085.75;5073719;28;921;-62
2021/07/01 11:26:42;;;;;;;;;;;;;;;34.48;37.63;99084.94;5073793;28;972;-61
2021/07/01 11:29:09;;;;;;;;;;;;;;;34.55;38.29;99078.41;5073754;28;884;-62
2021/07/01 11:31:41;;;;;;;;;;;;;;;34.73;38.64;99068.47;5073957;28;814;-62
2021/07/01 11:34:08;;;;;;;;;;;;;;;34.84;37.83;99069.31;5073543;28;1890;-63
2021/07/01 11:36:36;;;;;;;;;;;;;;;34.92;36.02;99070.00;5072896;28;822;-60
2021/07/01 11:39:06;;;;;;;;;;;;;;;35.01;38.49;99066.44;5073178;28;959;-60
2021/07/01 11:41:33;;;;;;;;;;;;;;;35.11;38.24;99075.13;5073984;28;786;-59
2021/07/01 11:44:00;;;;;;;;;;;;;;;35.45;37.63;99071.47;5073543;28;833;-59
2021/07/01 11:46:27;;;;;;;;;;;;;;;35.45;35.63;99062.84;5074008;28;816;-60
2021/07/01 11:48:55;;;;;;;;;;;;;;;35.24;35.48;99068.31;5073383;28;666;-59
2021/07/01 11:51:23;;;;;;;;;;;;;;;35.32;35.75;99057.47;5073646;28;865;-60
2021/07/01 11:53:50;;;;;;;;;;;;;;;35.21;35.85;99055.91;5073579;28;1947;-61
2021/07/01 11:56:17;;;;;;;;;;;;;;;35.26;36.43;99051.22;5073439;28;842;-60
2021/07/01 11:58:43;;;;;;;;;;;;;;;35.47;36.63;99048.63;5073433;28;818;-60
2021/07/01 12:01:10;;;;;;;;;;;;;;;35.68;36.43;99035.94;5073752;28;786;-60
2021/07/01 12:03:37;;;;;;;;;;;;;;;36.09;37.20;99036.97;5073308;28;853;-59
2021/07/01 12:06:05;;;;;;;;;;;;;;;36.52;35.08;99030.88;5073175;28;865;-59
2021/07/01 12:08:35;;;;;;;;;;;;;;;36.47;35.71;99024.06;5073428;28;802;-60
2021/07/01 12:11:03;;;;;;;;;;;;;;;36.61;35.50;99017.88;5072846;28;896;-59
2021/07/01 12:13:30;;;;;;;;;;;;;;;37.00;35.37;99021.53;5072725;28;1192;-63
2021/07/01 12:16:06;;;;;;;;;;;;;;;37.13;34.50;99015.31;5072883;28;1971;-60
2021/07/01 12:18:51;;;;;;;;;;;;;;;37.25;35.17;99009.66;5072729;28;853;-60
2021/07/01 12:21:21;;;;;;;;;;;;;;;37.22;35.29;99008.03;5072689;28;823;-60
2021/07/01 12:23:49;;;;;;;;;;;;;;;37.13;36.13;99008.81;5072764;28;810;-59
2021/07/01 12:26:32;;;;;;;;;;;;;;;37.16;35.13;99011.19;5072610;28;798;-60
2021/07/01 12:28:59;;;;;;;;;;;;;;;37.17;35.10;99004.09;5054623;28;1507;-59
2021/07/01 12:31:26;;;;;;;;;;;;;;;37.62;34.85;98997.13;5072504;28;811;-59
2021/07/01 12:33:57;;;;;;;;;;;;;;;37.77;33.76;98988.88;5072693;28;1901;-60
2021/07/01 12:36:30;;;;;;;;;;;;;;;37.59;33.28;98988.34;5054391;28;1372;-59
2021/07/01 12:41:33;;;;;;;;;;;;;;;37.47;33.76;98975.19;5072331;28;751;-60
2021/07/01 12:44:02;;;;;;;;;;;;;;;37.65;32.87;98973.63;5072271;28;1153;-60
2021/07/01 12:46:46;;;;;;;;;;;;;;;37.63;33.62;98973.47;5054344;28;870;-60
2021/07/01 12:49:15;;;;;;;;;;;;;;;37.79;32.80;98971.72;5071999;28;900;-60
2021/07/01 12:51:42;;;;;;;;;;;;;;;37.41;33.59;98964.00;5072243;28;857;-60
2021/07/01 12:54:27;;;;;;;;;;;;;;;37.55;34.00;98964.97;5071945;28;1902;-60
2021/07/01 12:57:02;;;;;;;;;;;;;;;37.96;34.34;98967.84;5072031;28;869;-60
2021/07/01 12:59:30;;;;;;;;;;;;;;;37.64;33.81;98971.34;5072018;28;834;-61
2021/07/01 13:02:10;;;;;;;;;;;;;;;37.48;35.03;98970.94;5071960;28;889;-60
2021/07/01 13:04:38;;;;;;;;;;;;;;;37.37;33.46;98961.56;5071864;28;857;-60
2021/07/01 13:07:05;;;;;;;;;;;;;;;37.15;34.61;98969.38;5071818;28;877;-61
2021/07/01 13:09:33;;;;;;;;;;;;;;;37.01;33.99;98970.44;5071863;28;896;-60
2021/07/01 13:12:02;;;;;;;;;;;;;;;36.93;34.05;98967.72;5071749;28;921;-61
2021/07/01 13:14:30;;;;;;;;;;;;;;;36.62;34.13;98971.25;5071578;28;1980;-60
2021/07/01 13:17:14;;;;;;;;;;;;;;;36.50;36.17;98976.81;5071701;28;904;-60
2021/07/01 13:19:44;;;;;;;;;;;;;;;36.44;36.19;98969.84;5071732;28;838;-60